sensor_id;sensor_type;location;lat;lon;timestamp;pressure;altitude;pressure_sealevel;temperature;humidity
13312;BME280;34033;48.672;9.376;2023-03-16T00:01:37;98959.66;;;3.65;70.97
13312;BME280;34033;48.672;9.376;2023-03-16T00:04:02;98964.72;;;3.63;71.78
13312;BME280;34033;48.672;9.376;2023-03-16T00:06:28;98965.72;;;3.58;71.95
13312;BME280;34033;48.672;9.376;2023-03-16T00:08:53;98975.97;;;3.58;72.65
13312;BME280;34033;48.672;9.376;2023-03-16T00:11:26;98969.78;;;3.61;72.49
13312;BME280;34033;48.672;9.376;2023-03-16T00:13:51;98962.63;;;3.60;72.13
13312;BME280;34033;48.672;9.376;2023-03-16T00:16:17;98965.38;;;3.60;71.49
13312;BME280;34033;48.672;9.376;2023-03-16T00:18:43;98965.06;;;3.61;71.47
13312;BME280;34033;48.672;9.376;2023-03-16T00:21:08;98963.09;;;3.62;71.59
13312;BME280;34033;48.672;9.376;2023-03-16T00:23:34;98967.00;;;3.61;71.57
13312;BME280;34033;48.672;9.376;2023-03-16T00:26:02;98961.47;;;3.61;71.79
13312;BME280;34033;48.672;9.376;2023-03-16T00:28:29;98966.53;;;3.59;71.20
13312;BME280;34033;48.672;9.376;2023-03-16T00:31:00;98972.03;;;3.59;72.08
13312;BME280;34033;48.672;9.376;2023-03-16T00:33:26;98967.81;;;3.61;71.36
13312;BME280;34033;48.672;9.376;2023-03-16T00:35:52;98974.16;;;3.62;70.35
13312;BME280;34033;48.672;9.376;2023-03-16T00:38:27;98974.03;;;3.50;70.68
13312;BME280;34033;48.672;9.376;2023-03-16T00:40:53;98975.53;;;3.47;70.83
13312;BME280;34033;48.672;9.376;2023-03-16T00:43:18;98970.78;;;3.48;71.67
13312;BME280;34033;48.672;9.376;2023-03-16T00:45:44;98967.25;;;3.47;71.34
13312;BME280;34033;48.672;9.376;2023-03-16T00:48:10;98967.06;;;3.44;71.17
13312;BME280;34033;48.672;9.376;2023-03-16T00:50:36;98969.38;;;3.33;70.88
13312;BME280;34033;48.672;9.376;2023-03-16T00:53:01;98969.38;;;3.33;71.11
13312;BME280;34033;48.672;9.376;2023-03-16T00:55:27;98968.75;;;3.36;71.75
13312;BME280;34033;48.672;9.376;2023-03-16T00:57:52;98963.22;;;3.36;72.09
13312;BME280;34033;48.672;9.376;2023-03-16T01:00:19;98963.69;;;3.38;72.03
13312;BME280;34033;48.672;9.376;2023-03-16T01:02:46;98968.06;;;3.39;71.67
13312;BME280;34033;48.672;9.376;2023-03-16T01:05:12;98963.69;;;3.38;70.97
13312;BME280;34033;48.672;9.376;2023-03-16T01:07:39;98974.41;;;3.40;70.84
13312;BME280;34033;48.672;9.376;2023-03-16T01:10:06;98974.41;;;3.40;70.89
13312;BME280;34033;48.672;9.376;2023-03-16T01:12:32;98971.16;;;3.38;71.03
13312;BME280;34033;48.672;9.376;2023-03-16T01:14:58;98979.81;;;3.36;70.56
13312;BME280;34033;48.672;9.376;2023-03-16T01:17:23;98979.31;;;3.34;70.67
13312;BME280;34033;48.672;9.376;2023-03-16T01:19:48;98978.50;;;3.33;70.97
13312;BME280;34033;48.672;9.376;2023-03-16T01:22:14;98979.63;;;3.32;71.54
13312;BME280;34033;48.672;9.376;2023-03-16T01:24:41;98971.66;;;3.31;71.22
13312;BME280;34033;48.672;9.376;2023-03-16T01:27:07;98975.59;;;3.21;70.98
13312;BME280;34033;48.672;9.376;2023-03-16T01:29:33;98964.41;;;3.18;71.52
13312;BME280;34033;48.672;9.376;2023-03-16T01:31:59;98961.31;;;3.11;71.17
13312;BME280;34033;48.672;9.376;2023-03-16T01:34:25;98966.84;;;3.11;72.02
13312;BME280;34033;48.672;9.376;2023-03-16T01:36:51;98964.41;;;3.09;72.03
13312;BME280;34033;48.672;9.376;2023-03-16T01:39:16;98964.41;;;3.09;71.84
13312;BME280;34033;48.672;9.376;2023-03-16T01:41:42;98966.03;;;3.10;71.62
13312;BME280;34033;48.672;9.376;2023-03-16T01:44:12;98960.06;;;2.91;71.63
13312;BME280;34033;48.672;9.376;2023-03-16T01:46:38;98963.47;;;2.88;72.46
13312;BME280;34033;48.672;9.376;2023-03-16T01:52:06;98954.06;;;2.89;72.58
13312;BME280;34033;48.672;9.376;2023-03-16T01:54:46;98951.78;;;2.91;72.05
13312;BME280;34033;48.672;9.376;2023-03-16T01:57:22;98951.44;;;2.92;71.68
13312;BME280;34033;48.672;9.376;2023-03-16T01:59:56;98962.50;;;2.92;71.97
13312;BME280;34033;48.672;9.376;2023-03-16T02:02:26;98952.13;;;2.89;72.39
13312;BME280;34033;48.672;9.376;2023-03-16T02:05:10;98954.56;;;2.91;73.19
13312;BME280;34033;48.672;9.376;2023-03-16T02:07:42;98948.53;;;2.89;73.54
13312;BME280;34033;48.672;9.376;2023-03-16T02:10:08;98948.53;;;2.89;73.66
13312;BME280;34033;48.672;9.376;2023-03-16T02:12:35;98942.06;;;2.85;74.03
13312;BME280;34033;48.672;9.376;2023-03-16T02:15:00;98938.63;;;2.88;73.65
13312;BME280;34033;48.672;9.376;2023-03-16T02:17:27;98945.78;;;2.89;73.96
13312;BME280;34033;48.672;9.376;2023-03-16T02:22:47;98930.69;;;2.86;73.22
13312;BME280;34033;48.672;9.376;2023-03-16T02:25:16;98926.94;;;2.82;73.04
13312;BME280;34033;48.672;9.376;2023-03-16T02:30:33;98927.44;;;2.76;73.45
13312;BME280;34033;48.672;9.376;2023-03-16T02:32:58;98925.84;;;2.75;73.57
13312;BME280;34033;48.672;9.376;2023-03-16T02:35:24;98912.84;;;2.67;73.28
13312;BME280;34033;48.672;9.376;2023-03-16T02:37:49;98919.03;;;2.64;73.21
13312;BME280;34033;48.672;9.376;2023-03-16T02:40:28;98912.50;;;2.60;72.80
13312;BME280;34033;48.672;9.376;2023-03-16T02:42:59;98920.16;;;2.54;72.99
13312;BME280;34033;48.672;9.376;2023-03-16T02:45:52;98917.56;;;2.58;73.60
13312;BME280;34033;48.672;9.376;2023-03-16T02:48:27;98916.13;;;2.51;73.79
13312;BME280;34033;48.672;9.376;2023-03-16T02:50:56;98922.28;;;2.48;73.37
13312;BME280;34033;48.672;9.376;2023-03-16T02:53:22;98924.38;;;2.43;73.70
13312;BME280;34033;48.672;9.376;2023-03-16T02:55:47;98926.19;;;2.47;73.28
13312;BME280;34033;48.672;9.376;2023-03-16T02:58:13;98920.00;;;2.50;73.53
13312;BME280;34033;48.672;9.376;2023-03-16T03:00:39;98918.53;;;2.44;73.11
13312;BME280;34033;48.672;9.376;2023-03-16T03:03:05;98916.91;;;2.43;73.05
13312;BME280;34033;48.672;9.376;2023-03-16T03:05:32;98917.09;;;2.47;72.81
13312;BME280;34033;48.672;9.376;2023-03-16T03:07:57;98912.84;;;2.49;72.26
13312;BME280;34033;48.672;9.376;2023-03-16T03:10:23;98911.22;;;2.48;72.09
13312;BME280;34033;48.672;9.376;2023-03-16T03:12:48;98901.81;;;2.49;72.32
13312;BME280;34033;48.672;9.376;2023-03-16T03:15:15;98900.84;;;2.45;72.05
13312;BME280;34033;48.672;9.376;2023-03-16T03:17:41;98902.00;;;2.44;72.75
13312;BME280;34033;48.672;9.376;2023-03-16T03:20:09;98908.00;;;2.46;72.66
13312;BME280;34033;48.672;9.376;2023-03-16T03:22:40;98896.31;;;2.49;71.99
13312;BME280;34033;48.672;9.376;2023-03-16T03:25:06;98893.22;;;2.51;72.33
13312;BME280;34033;48.672;9.376;2023-03-16T03:27:31;98899.56;;;2.51;71.99
13312;BME280;34033;48.672;9.376;2023-03-16T03:29:57;98910.91;;;2.50;71.61
13312;BME280;34033;48.672;9.376;2023-03-16T03:32:23;98905.41;;;2.41;72.14
13312;BME280;34033;48.672;9.376;2023-03-16T03:34:48;98910.59;;;2.34;73.14
13312;BME280;34033;48.672;9.376;2023-03-16T03:37:13;98906.22;;;2.33;73.26
13312;BME280;34033;48.672;9.376;2023-03-16T03:39:39;98901.66;;;2.37;73.63
13312;BME280;34033;48.672;9.376;2023-03-16T03:42:05;98894.53;;;2.36;73.17
13312;BME280;34033;48.672;9.376;2023-03-16T03:44:30;98887.88;;;2.37;72.90
13312;BME280;34033;48.672;9.376;2023-03-16T03:46:59;98881.72;;;2.40;72.72
13312;BME280;34033;48.672;9.376;2023-03-16T03:49:24;98877.81;;;2.41;72.38
13312;BME280;34033;48.672;9.376;2023-03-16T03:51:49;98874.72;;;2.43;72.17
13312;BME280;34033;48.672;9.376;2023-03-16T03:54:15;98879.94;;;2.36;71.51
13312;BME280;34033;48.672;9.376;2023-03-16T03:56:40;98879.59;;;2.29;71.79
13312;BME280;34033;48.672;9.376;2023-03-16T03:59:06;98877.19;;;2.19;72.34
13312;BME280;34033;48.672;9.376;2023-03-16T04:01:31;98874.41;;;2.27;72.08
13312;BME280;34033;48.672;9.376;2023-03-16T04:03:56;98871.81;;;2.22;72.32
13312;BME280;34033;48.672;9.376;2023-03-16T04:06:22;98884.47;;;2.23;73.24
13312;BME280;34033;48.672;9.376;2023-03-16T04:08:47;98876.88;;;2.20;73.73
13312;BME280;34033;48.672;9.376;2023-03-16T04:11:13;98873.94;;;2.25;72.55
13312;BME280;34033;48.672;9.376;2023-03-16T04:13:38;98877.50;;;2.17;73.21
13312;BME280;34033;48.672;9.376;2023-03-16T04:16:04;98876.69;;;2.17;72.72
13312;BME280;34033;48.672;9.376;2023-03-16T04:18:30;98868.25;;;2.22;72.36
13312;BME280;34033;48.672;9.376;2023-03-16T04:21:06;98865.47;;;2.22;72.61
13312;BME280;34033;48.672;9.376;2023-03-16T04:23:33;98869.53;;;2.16;73.13
13312;BME280;34033;48.672;9.376;2023-03-16T04:25:59;98875.69;;;2.21;73.04
13312;BME280;34033;48.672;9.376;2023-03-16T04:28:24;98869.38;;;2.29;72.39
13312;BME280;34033;48.672;9.376;2023-03-16T04:30:54;98866.47;;;2.34;72.55
13312;BME280;34033;48.672;9.376;2023-03-16T04:33:22;98863.69;;;2.51;72.41
13312;BME280;34033;48.672;9.376;2023-03-16T04:35:48;98869.44;;;2.76;72.56
13312;BME280;34033;48.672;9.376;2023-03-16T04:38:13;98847.81;;;2.95;72.31
13312;BME280;34033;48.672;9.376;2023-03-16T04:40:39;98844.78;;;3.17;73.56
13312;BME280;34033;48.672;9.376;2023-03-16T04:43:04;98851.69;;;3.32;71.29
13312;BME280;34033;48.672;9.376;2023-03-16T04:45:29;98847.56;;;3.47;70.46
13312;BME280;34033;48.672;9.376;2023-03-16T04:47:56;98844.09;;;3.58;70.17
13312;BME280;34033;48.672;9.376;2023-03-16T04:50:21;98839.97;;;3.64;68.16
13312;BME280;34033;48.672;9.376;2023-03-16T04:52:47;98838.97;;;3.69;66.49
13312;BME280;34033;48.672;9.376;2023-03-16T04:55:12;98836.22;;;3.69;65.56
13312;BME280;34033;48.672;9.376;2023-03-16T04:57:38;98832.78;;;3.72;65.36
13312;BME280;34033;48.672;9.376;2023-03-16T05:00:04;98842.53;;;3.69;66.68
13312;BME280;34033;48.672;9.376;2023-03-16T05:02:48;98845.25;;;3.78;65.08
13312;BME280;34033;48.672;9.376;2023-03-16T05:05:14;98851.28;;;3.80;66.37
13312;BME280;34033;48.672;9.376;2023-03-16T05:07:41;98847.81;;;3.83;65.80
13312;BME280;34033;48.672;9.376;2023-03-16T05:10:08;98853.84;;;3.85;65.30
13312;BME280;34033;48.672;9.376;2023-03-16T05:12:34;98848.44;;;3.89;65.27
13312;BME280;34033;48.672;9.376;2023-03-16T05:15:00;98852.13;;;3.93;65.22
13312;BME280;34033;48.672;9.376;2023-03-16T05:17:26;98846.56;;;4.01;69.47
13312;BME280;34033;48.672;9.376;2023-03-16T05:19:51;98842.09;;;4.30;74.00
13312;BME280;34033;48.672;9.376;2023-03-16T05:22:16;98842.09;;;4.30;67.20
13312;BME280;34033;48.672;9.376;2023-03-16T05:24:42;98840.47;;;4.29;63.97
13312;BME280;34033;48.672;9.376;2023-03-16T05:27:07;98835.34;;;4.18;62.66
13312;BME280;34033;48.672;9.376;2023-03-16T05:29:32;98842.75;;;4.06;63.27
13312;BME280;34033;48.672;9.376;2023-03-16T05:31:58;98841.47;;;4.03;63.56
13312;BME280;34033;48.672;9.376;2023-03-16T05:34:24;98842.66;;;4.02;63.28
13312;BME280;34033;48.672;9.376;2023-03-16T05:36:49;98839.53;;;4.04;62.87
13312;BME280;34033;48.672;9.376;2023-03-16T05:39:14;98838.72;;;4.03;63.08
13312;BME280;34033;48.672;9.376;2023-03-16T05:41:40;98837.56;;;4.04;63.22
13312;BME280;34033;48.672;9.376;2023-03-16T05:44:06;98842.06;;;4.09;63.01
13312;BME280;34033;48.672;9.376;2023-03-16T05:46:32;98839.31;;;4.09;63.20
13312;BME280;34033;48.672;9.376;2023-03-16T05:48:57;98836.53;;;4.09;63.61
13312;BME280;34033;48.672;9.376;2023-03-16T05:51:23;98834.94;;;4.08;63.77
13312;BME280;34033;48.672;9.376;2023-03-16T05:53:51;98841.25;;;4.08;64.27
13312;BME280;34033;48.672;9.376;2023-03-16T05:56:17;98836.69;;;4.12;64.35
13312;BME280;34033;48.672;9.376;2023-03-16T05:58:42;98830.03;;;4.13;63.92
13312;BME280;34033;48.672;9.376;2023-03-16T06:01:07;98839.72;;;4.19;64.11
13312;BME280;34033;48.672;9.376;2023-03-16T06:03:34;98842.25;;;4.25;64.78
13312;BME280;34033;48.672;9.376;2023-03-16T06:06:00;98834.94;;;4.29;64.74
13312;BME280;34033;48.672;9.376;2023-03-16T06:08:26;98833.09;;;4.33;64.35
13312;BME280;34033;48.672;9.376;2023-03-16T06:10:51;98838.75;;;4.36;63.73
13312;BME280;34033;48.672;9.376;2023-03-16T06:13:17;98830.44;;;4.36;64.02
13312;BME280;34033;48.672;9.376;2023-03-16T06:15:42;98832.75;;;4.34;64.78
13312;BME280;34033;48.672;9.376;2023-03-16T06:18:08;98836.78;;;4.37;64.24
13312;BME280;34033;48.672;9.376;2023-03-16T06:20:33;98843.28;;;4.41;64.79
13312;BME280;34033;48.672;9.376;2023-03-16T06:22:59;98841.44;;;4.45;64.67
13312;BME280;34033;48.672;9.376;2023-03-16T06:25:25;98839.72;;;4.52;64.37
13312;BME280;34033;48.672;9.376;2023-03-16T06:27:50;98838.72;;;4.57;64.78
13312;BME280;34033;48.672;9.376;2023-03-16T06:30:16;98841.13;;;4.58;64.84
13312;BME280;34033;48.672;9.376;2023-03-16T06:32:41;98844.50;;;4.64;64.69
13312;BME280;34033;48.672;9.376;2023-03-16T06:35:08;98835.31;;;4.72;65.35
13312;BME280;34033;48.672;9.376;2023-03-16T06:37:34;98832.56;;;4.84;64.87
13312;BME280;34033;48.672;9.376;2023-03-16T06:39:59;98831.19;;;4.90;63.15
13312;BME280;34033;48.672;9.376;2023-03-16T06:42:25;98833.81;;;4.87;63.79
13312;BME280;34033;48.672;9.376;2023-03-16T06:44:50;98833.81;;;4.87;64.08
13312;BME280;34033;48.672;9.376;2023-03-16T06:47:17;98825.06;;;4.85;64.59
13312;BME280;34033;48.672;9.376;2023-03-16T06:49:42;98830.38;;;4.90;64.08
13312;BME280;34033;48.672;9.376;2023-03-16T06:52:08;98825.84;;;4.85;64.14
13312;BME280;34033;48.672;9.376;2023-03-16T06:54:34;98827.47;;;4.86;64.04
13312;BME280;34033;48.672;9.376;2023-03-16T06:57:02;98828.44;;;4.90;63.63
13312;BME280;34033;48.672;9.376;2023-03-16T06:59:28;98826.81;;;4.89;63.34
13312;BME280;34033;48.672;9.376;2023-03-16T07:01:53;98829.66;;;4.81;64.49
13312;BME280;34033;48.672;9.376;2023-03-16T07:04:19;98842.84;;;4.84;65.10
13312;BME280;34033;48.672;9.376;2023-03-16T07:06:44;98836.72;;;4.90;65.55
13312;BME280;34033;48.672;9.376;2023-03-16T07:09:09;98832.22;;;4.98;65.50
13312;BME280;34033;48.672;9.376;2023-03-16T07:11:37;98829.38;;;5.07;65.40
13312;BME280;34033;48.672;9.376;2023-03-16T07:14:03;98836.75;;;5.15;65.21
13312;BME280;34033;48.672;9.376;2023-03-16T07:16:28;98837.66;;;5.19;64.83
13312;BME280;34033;48.672;9.376;2023-03-16T07:18:54;98843.78;;;5.24;64.86
13312;BME280;34033;48.672;9.376;2023-03-16T07:21:19;98842.19;;;5.35;64.83
13312;BME280;34033;48.672;9.376;2023-03-16T07:23:45;98838.16;;;5.45;64.88
13312;BME280;34033;48.672;9.376;2023-03-16T07:26:10;98838.84;;;5.54;64.63
13312;BME280;34033;48.672;9.376;2023-03-16T07:28:37;98836.41;;;5.65;64.72
13312;BME280;34033;48.672;9.376;2023-03-16T07:31:03;98835.72;;;5.68;64.12
13312;BME280;34033;48.672;9.376;2023-03-16T07:33:33;98839.97;;;5.77;63.68
13312;BME280;34033;48.672;9.376;2023-03-16T07:35:59;98840.78;;;5.78;63.76
13312;BME280;34033;48.672;9.376;2023-03-16T07:38:24;98842.03;;;5.80;63.94
13312;BME280;34033;48.672;9.376;2023-03-16T07:40:50;98844.81;;;5.80;63.82
13312;BME280;34033;48.672;9.376;2023-03-16T07:43:18;98834.19;;;5.82;64.32
13312;BME280;34033;48.672;9.376;2023-03-16T07:45:51;98833.25;;;5.91;64.08
13312;BME280;34033;48.672;9.376;2023-03-16T07:48:17;98838.22;;;5.97;64.46
13312;BME280;34033;48.672;9.376;2023-03-16T07:50:43;98828.00;;;6.13;64.92
13312;BME280;34033;48.672;9.376;2023-03-16T07:53:09;98835.22;;;6.30;65.16
13312;BME280;34033;48.672;9.376;2023-03-16T07:55:34;98832.88;;;6.44;64.32
13312;BME280;34033;48.672;9.376;2023-03-16T07:58:03;98832.91;;;6.60;64.57
13312;BME280;34033;48.672;9.376;2023-03-16T08:00:30;98826.94;;;6.74;63.88
13312;BME280;34033;48.672;9.376;2023-03-16T08:02:56;98828.03;;;6.85;63.53
13312;BME280;34033;48.672;9.376;2023-03-16T08:05:21;98838.25;;;6.81;63.41
13312;BME280;34033;48.672;9.376;2023-03-16T08:07:47;98824.97;;;6.74;63.08
13312;BME280;34033;48.672;9.376;2023-03-16T08:10:12;98832.22;;;6.79;63.88
13312;BME280;34033;48.672;9.376;2023-03-16T08:12:38;98829.72;;;6.89;63.27
13312;BME280;34033;48.672;9.376;2023-03-16T08:15:04;98833.06;;;6.95;63.50
13312;BME280;34033;48.672;9.376;2023-03-16T08:17:30;98829.13;;;6.96;62.90
13312;BME280;34033;48.672;9.376;2023-03-16T08:19:55;98832.16;;;7.06;63.44
13312;BME280;34033;48.672;9.376;2023-03-16T08:22:21;98831.28;;;7.18;63.27
13312;BME280;34033;48.672;9.376;2023-03-16T08:24:46;98826.38;;;7.27;63.06
13312;BME280;34033;48.672;9.376;2023-03-16T08:27:13;98832.28;;;7.26;62.71
13312;BME280;34033;48.672;9.376;2023-03-16T08:29:40;98828.66;;;7.57;63.55
13312;BME280;34033;48.672;9.376;2023-03-16T08:32:05;98828.91;;;8.02;63.16
13312;BME280;34033;48.672;9.376;2023-03-16T08:34:31;98837.47;;;8.48;61.97
13312;BME280;34033;48.672;9.376;2023-03-16T08:36:56;98834.75;;;8.70;60.42
13312;BME280;34033;48.672;9.376;2023-03-16T08:39:21;98821.44;;;8.83;59.78
13312;BME280;34033;48.672;9.376;2023-03-16T08:41:47;98828.59;;;9.03;59.43
13312;BME280;34033;48.672;9.376;2023-03-16T08:44:12;98816.25;;;9.04;58.88
13312;BME280;34033;48.672;9.376;2023-03-16T08:46:38;98816.69;;;9.06;58.68
13312;BME280;34033;48.672;9.376;2023-03-16T08:49:04;98805.38;;;9.18;59.33
13312;BME280;34033;48.672;9.376;2023-03-16T08:51:31;98809.31;;;9.40;58.99
13312;BME280;34033;48.672;9.376;2023-03-16T08:53:56;98800.13;;;9.40;57.81
13312;BME280;34033;48.672;9.376;2023-03-16T08:56:22;98795.91;;;9.49;58.41
13312;BME280;34033;48.672;9.376;2023-03-16T08:58:48;98796.78;;;9.53;58.19
13312;BME280;34033;48.672;9.376;2023-03-16T09:01:15;98791.75;;;9.40;57.40
13312;BME280;34033;48.672;9.376;2023-03-16T09:03:42;98789.91;;;9.47;57.77
13312;BME280;34033;48.672;9.376;2023-03-16T09:06:12;98786.84;;;9.56;57.18
13312;BME280;34033;48.672;9.376;2023-03-16T09:08:38;98782.53;;;9.62;57.38
13312;BME280;34033;48.672;9.376;2023-03-16T09:11:06;98771.69;;;9.57;56.69
13312;BME280;34033;48.672;9.376;2023-03-16T09:13:33;98779.38;;;9.63;56.77
13312;BME280;34033;48.672;9.376;2023-03-16T09:15:59;98766.72;;;9.70;56.79
13312;BME280;34033;48.672;9.376;2023-03-16T09:18:25;98767.88;;;9.69;55.83
13312;BME280;34033;48.672;9.376;2023-03-16T09:21:02;98773.09;;;9.70;55.96
13312;BME280;34033;48.672;9.376;2023-03-16T09:23:28;98771.19;;;9.78;55.75
13312;BME280;34033;48.672;9.376;2023-03-16T09:25:59;98768.16;;;9.86;54.62
13312;BME280;34033;48.672;9.376;2023-03-16T09:28:26;98771.22;;;10.08;54.74
13312;BME280;34033;48.672;9.376;2023-03-16T09:30:55;98767.44;;;10.23;54.12
13312;BME280;34033;48.672;9.376;2023-03-16T09:33:22;98761.50;;;10.24;52.63
13312;BME280;34033;48.672;9.376;2023-03-16T09:35:48;98758.38;;;10.33;52.80
13312;BME280;34033;48.672;9.376;2023-03-16T09:38:14;98755.69;;;10.40;52.25
13312;BME280;34033;48.672;9.376;2023-03-16T09:40:40;98741.81;;;10.47;52.21
13312;BME280;34033;48.672;9.376;2023-03-16T09:43:26;98742.41;;;10.67;51.91
13312;BME280;34033;48.672;9.376;2023-03-16T09:46:26;98735.66;;;10.71;51.29
13312;BME280;34033;48.672;9.376;2023-03-16T09:48:54;98728.41;;;10.67;49.87
13312;BME280;34033;48.672;9.376;2023-03-16T09:51:43;98736.78;;;10.63;49.99
13312;BME280;34033;48.672;9.376;2023-03-16T09:56:56;98740.44;;;10.71;50.29
13312;BME280;34033;48.672;9.376;2023-03-16T09:59:24;98734.56;;;10.83;49.81
13312;BME280;34033;48.672;9.376;2023-03-16T10:04:40;98723.19;;;11.06;49.31
13312;BME280;34033;48.672;9.376;2023-03-16T10:09:42;98709.81;;;11.36;48.71
13312;BME280;34033;48.672;9.376;2023-03-16T10:12:12;98708.22;;;11.35;46.98
13312;BME280;34033;48.672;9.376;2023-03-16T10:17:16;98713.91;;;11.49;47.43
13312;BME280;34033;48.672;9.376;2023-03-16T10:19:49;98699.63;;;11.65;47.29
13312;BME280;34033;48.672;9.376;2023-03-16T10:22:20;98710.44;;;11.66;47.13
13312;BME280;34033;48.672;9.376;2023-03-16T10:27:35;98692.53;;;11.78;46.63
13312;BME280;34033;48.672;9.376;2023-03-16T10:30:26;98710.56;;;11.91;46.79
13312;BME280;34033;48.672;9.376;2023-03-16T10:32:50;98711.81;;;11.94;46.23
13312;BME280;34033;48.672;9.376;2023-03-16T10:38:08;98717.09;;;12.13;46.10
13312;BME280;34033;48.672;9.376;2023-03-16T10:40:38;98713.13;;;12.21;45.30
13312;BME280;34033;48.672;9.376;2023-03-16T10:43:05;98707.09;;;12.19;45.52
13312;BME280;34033;48.672;9.376;2023-03-16T10:45:34;98702.75;;;12.29;45.90
13312;BME280;34033;48.672;9.376;2023-03-16T10:48:14;98699.53;;;12.27;45.64
13312;BME280;34033;48.672;9.376;2023-03-16T10:50:48;98689.13;;;12.27;44.99
13312;BME280;34033;48.672;9.376;2023-03-16T10:53:29;98697.56;;;12.34;44.92
13312;BME280;34033;48.672;9.376;2023-03-16T10:56:00;98695.97;;;12.40;45.09
13312;BME280;34033;48.672;9.376;2023-03-16T10:58:31;98684.75;;;12.37;43.52
13312;BME280;34033;48.672;9.376;2023-03-16T11:00:58;98695.16;;;12.33;44.45
13312;BME280;34033;48.672;9.376;2023-03-16T11:03:38;98694.38;;;12.39;45.14
13312;BME280;34033;48.672;9.376;2023-03-16T11:06:06;98685.56;;;12.48;44.96
13312;BME280;34033;48.672;9.376;2023-03-16T11:08:35;98676.38;;;12.54;44.92
13312;BME280;34033;48.672;9.376;2023-03-16T11:11:15;98673.59;;;12.62;44.86
13312;BME280;34033;48.672;9.376;2023-03-16T11:13:46;98678.00;;;12.70;45.12
13312;BME280;34033;48.672;9.376;2023-03-16T11:18:44;98657.56;;;12.83;44.42
13312;BME280;34033;48.672;9.376;2023-03-16T11:21:15;98650.34;;;12.86;43.52
13312;BME280;34033;48.672;9.376;2023-03-16T11:23:47;98657.56;;;12.90;43.62
13312;BME280;34033;48.672;9.376;2023-03-16T11:26:22;98657.56;;;12.83;43.19
13312;BME280;34033;48.672;9.376;2023-03-16T11:29:00;98657.56;;;12.76;43.62
13312;BME280;34033;48.672;9.376;2023-03-16T11:31:37;98663.19;;;12.73;43.90
13312;BME280;34033;48.672;9.376;2023-03-16T11:34:18;98651.16;;;12.86;43.08
13312;BME280;34033;48.672;9.376;2023-03-16T11:36:51;98648.34;;;13.04;43.88
13312;BME280;34033;48.672;9.376;2023-03-16T11:39:30;98641.94;;;13.18;42.91
13312;BME280;34033;48.672;9.376;2023-03-16T11:47:55;98629.38;;;13.68;41.84
13312;BME280;34033;48.672;9.376;2023-03-16T11:53:31;98631.72;;;13.91;41.06
13312;BME280;34033;48.672;9.376;2023-03-16T12:12:48;98598.41;;;14.55;40.08
13312;BME280;34033;48.672;9.376;2023-03-16T12:15:25;98592.66;;;14.73;39.56
13312;BME280;34033;48.672;9.376;2023-03-16T12:17:57;98597.38;;;14.83;38.85
13312;BME280;34033;48.672;9.376;2023-03-16T12:20:27;98597.31;;;14.90;39.28
13312;BME280;34033;48.672;9.376;2023-03-16T12:23:04;98589.97;;;15.03;40.06
13312;BME280;34033;48.672;9.376;2023-03-16T12:25:35;98586.66;;;15.12;39.88
13312;BME280;34033;48.672;9.376;2023-03-16T12:28:05;98575.63;;;15.28;39.55
13312;BME280;34033;48.672;9.376;2023-03-16T12:38:47;98569.09;;;15.76;38.13
13312;BME280;34033;48.672;9.376;2023-03-16T12:46:41;98565.44;;;16.06;37.58
13312;BME280;34033;48.672;9.376;2023-03-16T12:49:09;98562.00;;;16.21;37.49
13312;BME280;34033;48.672;9.376;2023-03-16T12:51:40;98549.72;;;16.35;37.78
13312;BME280;34033;48.672;9.376;2023-03-16T12:54:23;98558.44;;;16.44;36.56
13312;BME280;34033;48.672;9.376;2023-03-16T12:56:50;98553.47;;;16.52;36.94
13312;BME280;34033;48.672;9.376;2023-03-16T12:59:22;98565.63;;;16.76;39.02
13312;BME280;34033;48.672;9.376;2023-03-16T13:01:51;98550.25;;;16.77;37.52
13312;BME280;34033;48.672;9.376;2023-03-16T13:04:28;98552.75;;;16.98;37.78
13312;BME280;34033;48.672;9.376;2023-03-16T13:07:19;98551.13;;;16.97;36.97
13312;BME280;34033;48.672;9.376;2023-03-16T13:09:50;98544.13;;;17.05;37.18
13312;BME280;34033;48.672;9.376;2023-03-16T13:12:25;98537.13;;;17.13;37.48
13312;BME280;34033;48.672;9.376;2023-03-16T13:14:51;98535.16;;;17.10;37.05
13312;BME280;34033;48.672;9.376;2023-03-16T13:19:57;98539.78;;;17.00;36.95
13312;BME280;34033;48.672;9.376;2023-03-16T13:22:28;98532.22;;;16.94;36.22
13312;BME280;34033;48.672;9.376;2023-03-16T13:24:55;98529.47;;;16.90;37.06
13312;BME280;34033;48.672;9.376;2023-03-16T13:27:31;98531.72;;;16.99;36.70
13312;BME280;34033;48.672;9.376;2023-03-16T13:29:59;98523.94;;;17.06;36.85
13312;BME280;34033;48.672;9.376;2023-03-16T13:32:31;98530.75;;;17.09;37.16
13312;BME280;34033;48.672;9.376;2023-03-16T13:34:59;98527.22;;;17.25;36.51
13312;BME280;34033;48.672;9.376;2023-03-16T13:37:28;98532.56;;;17.39;36.37
13312;BME280;34033;48.672;9.376;2023-03-16T13:39:59;98524.97;;;17.56;36.97
13312;BME280;34033;48.672;9.376;2023-03-16T13:42:28;98531.22;;;17.67;36.25
13312;BME280;34033;48.672;9.376;2023-03-16T13:44:57;98523.25;;;17.62;37.02
13312;BME280;34033;48.672;9.376;2023-03-16T13:47:25;98515.06;;;17.67;36.83
13312;BME280;34033;48.672;9.376;2023-03-16T13:49:55;98516.78;;;17.81;36.79
13312;BME280;34033;48.672;9.376;2023-03-16T13:52:29;98516.28;;;17.86;36.18
13312;BME280;34033;48.672;9.376;2023-03-16T13:54:56;98518.94;;;17.93;36.45
13312;BME280;34033;48.672;9.376;2023-03-16T13:57:25;98506.91;;;17.89;36.64
13312;BME280;34033;48.672;9.376;2023-03-16T13:59:59;98513.53;;;17.82;35.66
13312;BME280;34033;48.672;9.376;2023-03-16T14:02:25;98497.50;;;17.76;34.22
13312;BME280;34033;48.672;9.376;2023-03-16T14:04:50;98500.69;;;17.78;33.07
13312;BME280;34033;48.672;9.376;2023-03-16T14:07:18;98488.31;;;17.72;33.13
13312;BME280;34033;48.672;9.376;2023-03-16T14:09:44;98496.41;;;17.70;33.19
13312;BME280;34033;48.672;9.376;2023-03-16T14:12:16;98494.75;;;17.72;33.05
13312;BME280;34033;48.672;9.376;2023-03-16T14:14:46;98501.88;;;17.80;32.84
13312;BME280;34033;48.672;9.376;2023-03-16T14:17:19;98500.88;;;17.87;32.29
13312;BME280;34033;48.672;9.376;2023-03-16T14:19:49;98487.34;;;18.14;33.50
13312;BME280;34033;48.672;9.376;2023-03-16T14:22:21;98484.88;;;18.49;33.36